createdAt,value
2022-08-20T00:00:46.419Z,18.81
2022-08-20T00:03:27.697Z,18.75
2022-08-20T00:06:03.367Z,18.66
2022-08-20T00:08:31.032Z,18.59
2022-08-20T00:11:01.157Z,18.56
2022-08-20T00:13:37.830Z,18.51
2022-08-20T00:16:06.605Z,18.49
2022-08-20T00:18:36.970Z,18.46
2022-08-20T00:21:06.701Z,18.44
2022-08-20T00:23:33.276Z,18.53
2022-08-20T00:25:59.900Z,18.56
2022-08-20T00:28:26.446Z,18.53
2022-08-20T00:30:53.008Z,18.51
2022-08-20T00:33:22.455Z,18.44
2022-08-20T00:35:53.543Z,18.45
2022-08-20T00:38:20.537Z,18.47
2022-08-20T00:40:51.064Z,18.43
2022-08-20T00:43:36.217Z,18.41
2022-08-20T00:46:06.989Z,18.37
2022-08-20T00:48:36.010Z,18.31
2022-08-20T00:51:10.095Z,18.37
2022-08-20T00:53:37.592Z,18.42
2022-08-20T00:56:06.890Z,18.38
2022-08-20T00:58:34.353Z,18.43
2022-08-20T01:01:01.658Z,18.39
2022-08-20T01:03:28.226Z,18.35
2022-08-20T01:05:54.775Z,18.25
2022-08-20T01:08:24.642Z,18.23
2022-08-20T01:10:53.879Z,18.20
2022-08-20T01:13:22.490Z,18.19
2022-08-20T01:15:51.978Z,18.14
2022-08-20T01:18:21.194Z,18.10
2022-08-20T01:20:54.444Z,18.19
2022-08-20T01:23:32.657Z,18.19
2022-08-20T01:26:10.882Z,18.19
2022-08-20T01:28:45.415Z,18.21
2022-08-20T01:31:15.626Z,18.24
2022-08-20T01:33:44.860Z,18.26
2022-08-20T01:36:14.056Z,18.27
2022-08-20T01:38:40.956Z,18.27
2022-08-20T01:41:29.358Z,18.31
2022-08-20T01:43:58.567Z,18.36
2022-08-20T01:46:33.040Z,18.45
2022-08-20T01:49:21.026Z,18.44
2022-08-20T01:51:52.392Z,18.43
2022-08-20T01:54:19.408Z,18.55
2022-08-20T01:56:59.867Z,18.54
2022-08-20T01:59:26.772Z,18.57
2022-08-20T02:01:55.082Z,18.49
2022-08-20T02:04:21.949Z,18.42
2022-08-20T02:06:56.262Z,18.39
2022-08-20T02:09:30.209Z,18.39
2022-08-20T02:11:57.786Z,18.40
2022-08-20T02:14:25.035Z,18.33
2022-08-20T02:16:54.899Z,18.30
2022-08-20T02:19:34.248Z,18.26
2022-08-20T02:22:04.466Z,18.16
2022-08-20T02:24:31.105Z,18.13
2022-08-20T02:26:57.632Z,18.07
2022-08-20T02:29:24.219Z,18.06
2022-08-20T02:32:25.155Z,18.08
2022-08-20T02:34:37.968Z,18.08
2022-08-20T02:37:06.328Z,18.06
2022-08-20T02:39:34.077Z,18.07
2022-08-20T02:42:02.757Z,18.06
2022-08-20T02:44:31.182Z,18.10
2022-08-20T02:46:58.381Z,18.11
2022-08-20T02:49:24.981Z,18.08
2022-08-20T02:51:51.526Z,18.01
2022-08-20T02:54:18.124Z,17.97
2022-08-20T02:56:44.982Z,17.89
2022-08-20T02:59:13.708Z,17.99
2022-08-20T03:01:46.400Z,17.94
2022-08-20T03:04:12.965Z,17.93
2022-08-20T03:06:39.615Z,17.92
2022-08-20T03:09:07.802Z,17.99
2022-08-20T03:11:34.975Z,17.96
2022-08-20T03:14:02.256Z,17.91
2022-08-20T03:16:28.852Z,17.88
2022-08-20T03:18:55.855Z,17.88
2022-08-20T03:21:22.388Z,17.85
2022-08-20T03:23:49.027Z,17.80
2022-08-20T03:26:16.476Z,17.74
2022-08-20T03:28:43.510Z,17.75
2022-08-20T03:31:10.226Z,17.71
2022-08-20T03:33:39.636Z,17.67
2022-08-20T03:36:28.124Z,17.58
2022-08-20T03:38:57.889Z,17.53
2022-08-20T03:41:25.276Z,17.47
2022-08-20T03:43:52.694Z,17.47
2022-08-20T03:46:23.550Z,17.44
2022-08-20T03:48:56.693Z,17.37
2022-08-20T03:51:29.985Z,17.27
2022-08-20T03:53:57.302Z,17.23
2022-08-20T03:56:24.125Z,17.17
2022-08-20T03:58:50.714Z,17.12
2022-08-20T04:01:44.314Z,17.04
2022-08-20T04:04:04.448Z,16.98
2022-08-20T04:06:30.997Z,16.93
2022-08-20T04:08:57.718Z,16.85
2022-08-20T04:11:24.434Z,16.80
2022-08-20T04:13:51.303Z,16.70
2022-08-20T04:16:18.265Z,16.64
2022-08-20T04:19:01.545Z,16.54
2022-08-20T04:21:33.083Z,16.42
2022-08-20T04:24:00.604Z,16.38
2022-08-20T04:26:27.166Z,16.31
2022-08-20T04:28:55.769Z,16.28
2022-08-20T04:31:25.312Z,16.20
2022-08-20T04:33:52.638Z,16.20
2022-08-20T04:36:19.321Z,16.04
2022-08-20T04:38:48.088Z,15.99
2022-08-20T04:41:23.208Z,15.94
2022-08-20T04:43:51.794Z,15.85
2022-08-20T04:46:19.346Z,15.75
2022-08-20T04:48:50.094Z,15.70
2022-08-20T04:51:17.164Z,15.73
2022-08-20T04:53:51.666Z,15.73
2022-08-20T04:56:23.213Z,15.71
2022-08-20T04:58:51.268Z,15.73
2022-08-20T05:01:18.476Z,15.72
2022-08-20T05:03:47.787Z,15.72
2022-08-20T05:06:16.056Z,15.78
2022-08-20T05:08:43.179Z,15.86
2022-08-20T05:11:34.620Z,15.92
2022-08-20T05:13:57.227Z,15.99
2022-08-20T05:16:24.645Z,16.04
2022-08-20T05:18:52.726Z,16.12
2022-08-20T05:21:20.612Z,16.23
2022-08-20T05:23:47.394Z,16.30
2022-08-20T05:26:15.896Z,16.39
2022-08-20T05:28:53.879Z,16.46
2022-08-20T05:31:32.536Z,16.57
2022-08-20T05:34:10.729Z,16.70
2022-08-20T05:36:49.679Z,16.88
2022-08-20T05:39:18.376Z,17.03
2022-08-20T05:41:45.134Z,17.21
2022-08-20T05:44:14.036Z,17.47
2022-08-20T05:46:42.701Z,17.71
2022-08-20T05:49:16.329Z,17.93
2022-08-20T05:51:43.763Z,18.00
2022-08-20T05:54:11.006Z,17.94
2022-08-20T05:56:39.527Z,17.83
2022-08-20T05:59:07.420Z,17.83
2022-08-20T06:01:36.372Z,17.77
2022-08-20T06:04:22.222Z,17.85
2022-08-20T06:06:51.121Z,17.94
2022-08-20T06:09:27.931Z,18.00
2022-08-20T06:12:03.281Z,18.06
2022-08-20T06:14:29.869Z,18.14
2022-08-20T06:17:02.915Z,18.24
2022-08-20T06:19:32.085Z,18.29
2022-08-20T06:21:59.413Z,18.36
2022-08-20T06:24:26.952Z,18.44
2022-08-20T06:26:57.569Z,18.53
2022-08-20T06:29:24.243Z,18.57
2022-08-20T06:31:50.756Z,18.51
2022-08-20T06:34:18.743Z,18.49
2022-08-20T06:36:48.334Z,18.43
2022-08-20T06:39:15.997Z,18.42
2022-08-20T06:41:42.649Z,18.42
2022-08-20T06:44:10.137Z,18.43
2022-08-20T06:46:37.654Z,18.50
2022-08-20T06:49:08.575Z,18.57
2022-08-20T06:51:37.331Z,18.65
2022-08-20T06:54:05.256Z,18.77
2022-08-20T06:56:33.517Z,18.87
2022-08-20T06:59:00.150Z,18.95
2022-08-20T07:01:26.720Z,18.96
2022-08-20T07:03:55.307Z,18.89
2022-08-20T07:06:25.516Z,18.83
2022-08-20T07:08:53.058Z,18.80
2022-08-20T07:11:26.566Z,18.87
2022-08-20T07:13:56.554Z,19.09
2022-08-20T07:16:23.142Z,19.42
2022-08-20T07:18:49.677Z,19.57
2022-08-20T07:21:17.471Z,19.55
2022-08-20T07:23:44.558Z,19.37
2022-08-20T07:26:11.135Z,19.25
2022-08-20T07:28:37.686Z,19.07
2022-08-20T07:31:22.897Z,18.89
2022-08-20T07:33:50.557Z,18.65
2022-08-20T07:36:17.749Z,18.55
2022-08-20T07:38:47.209Z,18.42
2022-08-20T07:41:17.712Z,18.31
2022-08-20T08:01:06.537Z,18.23
2022-08-20T08:24:21.786Z,18.27
2022-08-20T08:26:50.214Z,18.46
2022-08-20T08:29:17.204Z,18.57
2022-08-20T08:31:43.987Z,18.63
2022-08-20T08:34:10.566Z,18.65
2022-08-20T08:36:39.329Z,18.58
2022-08-20T08:39:05.997Z,18.49
2022-08-20T08:41:40.912Z,18.31
2022-08-20T08:44:12.523Z,18.30
2022-08-20T08:46:43.024Z,18.26
2022-08-20T08:49:12.961Z,18.16
2022-08-20T08:51:46.397Z,18.43
2022-08-20T08:54:22.489Z,18.43
2022-08-20T08:56:50.606Z,18.55
2022-08-20T08:59:18.281Z,18.63
2022-08-20T09:01:54.085Z,18.71
2022-08-20T09:04:28.490Z,18.81
2022-08-20T09:06:55.073Z,18.70
2022-08-20T09:09:25.614Z,18.71
2022-08-20T09:11:55.855Z,18.78
2022-08-20T09:14:24.983Z,18.61
2022-08-20T09:16:52.818Z,18.57
2022-08-20T09:19:20.227Z,18.72
2022-08-20T09:21:48.731Z,19.03
2022-08-20T09:24:15.391Z,19.34
2022-08-20T09:26:42.055Z,19.79
2022-08-20T09:32:54.630Z,21.20
2022-08-20T09:35:31.930Z,21.58
2022-08-20T09:41:44.683Z,22.95
2022-08-20T09:44:11.218Z,23.46
2022-08-20T09:46:37.751Z,23.93
2022-08-20T09:49:04.312Z,24.26
2022-08-20T09:51:33.920Z,24.59
2022-08-20T09:54:05.320Z,25.14
2022-08-20T09:56:34.406Z,25.54
2022-08-20T09:59:02.913Z,25.33
2022-08-20T10:01:29.660Z,24.53
2022-08-20T10:03:56.322Z,23.54
2022-08-20T10:06:22.870Z,23.18
2022-08-20T10:08:49.716Z,23.15
2022-08-20T10:11:18.026Z,23.33
2022-08-20T10:13:45.016Z,22.94
2022-08-20T10:16:11.587Z,22.92
2022-08-20T10:18:38.263Z,22.89
2022-08-20T10:21:10.413Z,23.19
2022-08-20T10:23:36.945Z,23.30
2022-08-20T10:26:03.784Z,23.25
2022-08-20T10:28:30.324Z,23.07
2022-08-20T10:30:56.840Z,23.17
2022-08-20T10:33:23.486Z,23.73
2022-08-20T10:35:50.061Z,24.36
2022-08-20T10:38:17.238Z,25.60
2022-08-20T10:40:49.802Z,27.74
2022-08-20T10:43:19.285Z,28.50
2022-08-20T10:45:45.819Z,28.35
2022-08-20T10:48:12.388Z,27.84
2022-08-20T10:50:38.961Z,27.14
2022-08-20T10:53:05.520Z,26.52
2022-08-20T10:55:32.222Z,28.47
2022-08-20T10:57:58.899Z,29.82
2022-08-20T11:00:25.860Z,31.15
2022-08-20T11:02:52.622Z,32.89
2022-08-20T11:05:19.298Z,33.46
2022-08-20T11:08:08.462Z,33.30
2022-08-20T11:10:34.619Z,33.01
2022-08-20T11:13:02.913Z,32.35
2022-08-20T11:15:29.495Z,32.30
2022-08-20T11:17:56.774Z,30.82
2022-08-20T11:20:27.781Z,30.83
2022-08-20T11:22:54.809Z,31.42
2022-08-20T11:25:21.515Z,30.74
2022-08-20T11:27:50.229Z,30.19
2022-08-20T11:30:43.110Z,29.49
2022-08-20T11:33:09.652Z,28.77
2022-08-20T11:35:48.866Z,27.11
2022-08-20T11:38:16.365Z,25.66
2022-08-20T11:40:42.951Z,24.94
2022-08-20T11:43:17.723Z,24.46
2022-08-20T11:45:50.663Z,24.42
2022-08-20T11:48:18.214Z,25.11
2022-08-20T11:50:45.366Z,25.77
2022-08-20T11:53:11.940Z,27.13
2022-08-20T11:55:38.652Z,29.05
2022-08-20T11:58:05.950Z,31.14
2022-08-20T12:00:34.263Z,31.90
2022-08-20T12:03:02.276Z,32.15
2022-08-20T12:05:30.020Z,33.44
2022-08-20T12:07:57.622Z,35.02
2022-08-20T12:10:26.401Z,36.57
2022-08-20T12:12:53.018Z,37.35
2022-08-20T12:15:20.105Z,37.83
2022-08-20T12:17:46.680Z,37.54
2022-08-20T12:20:14.438Z,38.93
2022-08-20T12:22:41.146Z,38.18
2022-08-20T12:25:08.610Z,37.08
2022-08-20T12:27:36.198Z,35.91
2022-08-20T12:30:06.781Z,36.21
2022-08-20T12:32:34.432Z,35.43
2022-08-20T12:35:01.186Z,35.20
2022-08-20T12:37:30.571Z,36.18
2022-08-20T12:39:58.944Z,36.09
2022-08-20T12:42:26.374Z,37.55
2022-08-20T12:44:52.971Z,37.82
2022-08-20T12:47:22.589Z,39.68
2022-08-20T12:49:52.275Z,41.36
2022-08-20T12:52:20.606Z,39.43
2022-08-20T12:54:47.445Z,38.83
2022-08-20T12:57:24.390Z,38.97
2022-08-20T12:59:50.956Z,39.27
2022-08-20T13:02:20.389Z,38.96
2022-08-20T13:04:47.118Z,37.96
2022-08-20T13:07:14.476Z,38.62
2022-08-20T13:09:42.854Z,39.95
2022-08-20T13:12:10.456Z,40.55
2022-08-20T13:14:38.293Z,40.44
2022-08-20T13:17:05.004Z,40.01
2022-08-20T13:19:35.164Z,39.45
2022-08-20T13:22:02.439Z,37.26
2022-08-20T13:24:29.107Z,35.83
2022-08-20T13:27:04.287Z,34.08
2022-08-20T13:29:30.836Z,32.76
2022-08-20T13:31:57.353Z,30.96
2022-08-20T13:34:23.898Z,30.19
2022-08-20T13:36:50.473Z,29.30
2022-08-20T13:39:17.032Z,28.96
2022-08-20T13:41:44.239Z,28.69
2022-08-20T13:44:10.906Z,27.91
2022-08-20T13:46:37.458Z,27.43
2022-08-20T13:49:04.459Z,27.09
2022-08-20T13:51:30.982Z,26.64
2022-08-20T13:53:57.562Z,26.75
2022-08-20T13:56:24.261Z,26.84
2022-08-20T13:58:50.804Z,26.38
2022-08-20T14:01:19.720Z,26.49
2022-08-20T14:03:47.879Z,26.43
2022-08-20T14:06:15.026Z,26.14
2022-08-20T14:08:41.607Z,25.73
2022-08-20T14:11:08.160Z,25.34
2022-08-20T14:13:40.512Z,25.09
2022-08-20T14:16:25.242Z,24.94
2022-08-20T14:18:56.259Z,24.87
2022-08-20T14:21:22.770Z,24.84
2022-08-20T14:23:49.324Z,24.70
2022-08-20T14:26:15.840Z,24.61
2022-08-20T14:28:42.421Z,24.47
2022-08-20T14:31:08.971Z,24.48
2022-08-20T14:33:36.275Z,24.58
2022-08-20T14:36:03.099Z,24.68
2022-08-20T14:38:29.678Z,24.67
2022-08-20T14:40:56.253Z,24.64
2022-08-20T14:43:22.817Z,24.61
2022-08-20T14:45:49.398Z,24.37
2022-08-20T14:48:16.023Z,24.37
2022-08-20T14:50:43.028Z,24.21
2022-08-20T14:53:09.745Z,24.74
2022-08-20T14:55:37.608Z,25.08
2022-08-20T14:58:08.955Z,24.82
2022-08-20T15:00:35.691Z,24.39
2022-08-20T15:03:02.426Z,24.37
2022-08-20T15:05:29.742Z,24.29
2022-08-20T15:07:57.218Z,24.17
2022-08-20T15:10:31.860Z,24.32
2022-08-20T15:12:59.340Z,24.46
2022-08-20T15:15:26.345Z,24.76
2022-08-20T15:17:55.149Z,25.60
2022-08-20T15:20:24.407Z,25.46
2022-08-20T15:22:51.510Z,24.83
2022-08-20T15:25:22.249Z,24.22
2022-08-20T15:27:49.235Z,23.94
2022-08-20T15:30:19.082Z,23.78
2022-08-20T15:32:46.066Z,23.75
2022-08-20T15:35:13.313Z,23.76
2022-08-20T15:37:43.036Z,23.64
2022-08-20T15:40:11.737Z,23.59
2022-08-20T15:42:39.587Z,23.45
2022-08-20T15:45:07.641Z,23.35
2022-08-20T15:47:49.951Z,23.34
2022-08-20T15:50:33.712Z,23.23
2022-08-20T15:53:10.838Z,23.10
2022-08-20T15:55:41.271Z,22.85
2022-08-20T15:58:15.224Z,22.76
2022-08-20T16:00:54.342Z,22.74
2022-08-20T16:03:39.640Z,22.75
2022-08-20T16:06:21.813Z,22.92
2022-08-20T16:09:07.336Z,23.20
2022-08-20T16:11:53.397Z,23.18
2022-08-20T16:14:22.397Z,23.04
2022-08-20T16:17:01.140Z,23.27
2022-08-20T16:19:33.008Z,23.20
2022-08-20T16:21:59.904Z,22.87
2022-08-20T16:24:26.461Z,22.72
2022-08-20T16:27:01.307Z,22.65
2022-08-20T16:29:33.934Z,22.69
2022-08-20T16:32:04.697Z,22.76
2022-08-20T16:34:38.857Z,22.71
2022-08-20T16:37:29.018Z,22.64
2022-08-20T16:39:58.388Z,22.46
2022-08-20T16:42:26.287Z,22.47
2022-08-20T16:44:54.492Z,22.33
2022-08-20T16:47:30.111Z,22.26
2022-08-20T16:50:02.199Z,22.13
2022-08-20T16:52:28.775Z,21.89
2022-08-20T16:54:55.697Z,21.71
2022-08-20T16:57:22.433Z,21.60
2022-08-20T16:59:58.586Z,21.49
2022-08-20T17:02:26.164Z,21.50
2022-08-20T17:04:59.417Z,21.54
2022-08-20T17:07:29.892Z,21.60
2022-08-20T17:10:20.646Z,21.52
2022-08-20T17:12:52.944Z,21.50
2022-08-20T17:15:23.157Z,21.50
2022-08-20T17:17:49.805Z,21.49
2022-08-20T17:20:20.546Z,21.42
2022-08-20T17:23:09.922Z,21.35
2022-08-20T17:25:38.383Z,21.32
2022-08-20T17:28:19.775Z,21.25
2022-08-20T17:30:47.391Z,21.16
2022-08-20T17:33:26.526Z,21.08
2022-08-20T17:35:59.541Z,20.96
2022-08-20T17:38:37.768Z,20.78
2022-08-20T17:41:13.937Z,20.65
2022-08-20T17:43:44.638Z,20.57
2022-08-20T17:46:17.470Z,20.41
2022-08-20T17:48:46.723Z,20.29
2022-08-20T17:51:22.555Z,20.23
2022-08-20T17:54:00.265Z,20.10
2022-08-20T17:56:31.218Z,19.99
2022-08-20T17:59:05.881Z,19.87
2022-08-20T18:01:33.566Z,19.75
2022-08-20T18:04:00.237Z,19.62
2022-08-20T18:06:34.468Z,19.49
2022-08-20T18:09:17.907Z,19.31
2022-08-20T18:15:27.238Z,19.12
2022-08-20T18:18:15.461Z,18.99
2022-08-20T18:25:13.919Z,18.67
2022-08-20T18:27:44.244Z,18.52
2022-08-20T18:30:17.624Z,18.37
2022-08-20T18:32:46.323Z,18.28
2022-08-20T18:35:19.128Z,18.12
2022-08-20T18:37:45.728Z,18.01
2022-08-20T18:40:30.202Z,17.94
2022-08-20T18:43:00.184Z,17.89
2022-08-20T18:45:35.812Z,17.71
2022-08-20T18:48:03.475Z,17.59
2022-08-20T18:50:38.772Z,17.53
2022-08-20T18:53:20.593Z,17.42
2022-08-20T18:56:00.229Z,17.37
2022-08-20T18:58:52.576Z,17.15
2022-08-20T19:01:19.477Z,17.07
2022-08-20T19:03:49.739Z,16.98
2022-08-20T19:06:25.602Z,16.88
2022-08-20T19:09:00.203Z,16.84
2022-08-20T19:11:55.982Z,16.82
2022-08-20T19:14:40.969Z,16.77
2022-08-20T19:17:12.011Z,16.69
2022-08-20T19:19:38.658Z,16.55
2022-08-20T19:22:05.347Z,16.50
2022-08-20T19:24:34.464Z,16.42
2022-08-20T19:27:07.983Z,16.33
2022-08-20T19:29:42.133Z,16.24
2022-08-20T19:32:18.176Z,16.07
2022-08-20T19:34:52.255Z,15.92
2022-08-20T19:37:35.348Z,15.83
2022-08-20T19:40:08.788Z,15.73
2022-08-20T19:42:42.848Z,15.63
2022-08-20T19:45:26.703Z,15.66
2022-08-20T19:47:57.122Z,15.67
2022-08-20T19:50:33.669Z,15.60
2022-08-20T19:53:30.064Z,15.41
2022-08-20T19:56:04.817Z,15.33
2022-08-20T19:58:32.449Z,15.17
2022-08-20T20:01:00.691Z,15.15
2022-08-20T20:03:30.062Z,15.03
2022-08-20T20:06:16.166Z,14.93
2022-08-20T20:08:58.360Z,14.89
2022-08-20T20:11:30.740Z,14.83
2022-08-20T20:14:06.570Z,14.78
2022-08-20T20:16:34.148Z,14.71
2022-08-20T20:19:24.758Z,14.64
2022-08-20T20:21:50.707Z,14.62
2022-08-20T20:24:29.627Z,14.60
2022-08-20T20:26:58.784Z,14.55
2022-08-20T20:29:28.108Z,14.50
2022-08-20T20:31:57.284Z,14.43
2022-08-20T20:34:55.696Z,14.45
2022-08-20T20:37:50.747Z,14.36
2022-08-20T20:40:35.898Z,14.34
2022-08-20T20:43:08.871Z,14.29
2022-08-20T20:45:40.189Z,14.24
2022-08-20T20:48:23.831Z,14.30
2022-08-20T20:50:51.720Z,14.31
2022-08-20T20:53:51.308Z,14.23
2022-08-20T20:56:29.759Z,14.15
2022-08-20T20:58:56.435Z,14.08
2022-08-20T21:01:27.344Z,14.04
2022-08-20T21:04:09.929Z,14.02
2022-08-20T21:06:36.654Z,13.99
2022-08-20T21:09:03.234Z,14.07
2022-08-20T21:11:29.819Z,14.12
2022-08-20T21:13:56.585Z,14.16
2022-08-20T21:16:23.143Z,14.09
2022-08-20T21:18:49.682Z,14.09
2022-08-20T21:21:16.256Z,14.05
2022-08-20T21:23:42.822Z,14.00
2022-08-20T21:26:09.771Z,13.93
2022-08-20T21:28:36.331Z,13.88
2022-08-20T21:31:03.095Z,13.74
2022-08-20T21:33:29.664Z,13.82
2022-08-20T21:35:56.890Z,13.80
2022-08-20T21:38:24.045Z,13.83
2022-08-20T21:40:50.729Z,13.85
2022-08-20T21:43:18.814Z,13.86
2022-08-20T21:45:45.573Z,13.82
2022-08-20T21:48:16.224Z,13.87
2022-08-20T21:50:43.582Z,13.86
2022-08-20T21:53:11.328Z,13.86
2022-08-20T21:55:39.894Z,13.75
2022-08-20T21:58:07.078Z,13.65
2022-08-20T22:00:56.665Z,13.70
2022-08-20T22:03:27.675Z,13.73
2022-08-20T22:05:55.205Z,13.77
2022-08-20T22:08:28.504Z,13.74
2022-08-20T22:10:57.069Z,13.72
2022-08-20T22:13:24.986Z,13.70
2022-08-20T22:15:51.525Z,13.71
2022-08-20T22:18:18.140Z,13.61
2022-08-20T22:20:44.824Z,13.54
2022-08-20T22:23:12.016Z,13.54
2022-08-20T22:25:38.761Z,13.57
2022-08-20T22:28:05.322Z,13.52
2022-08-20T22:30:31.936Z,13.54
2022-08-20T22:33:07.876Z,13.56
2022-08-20T22:35:34.725Z,13.60
2022-08-20T22:38:01.386Z,13.67
2022-08-20T22:40:27.980Z,13.66
2022-08-20T22:42:54.656Z,13.54
2022-08-20T22:45:21.279Z,13.54
2022-08-20T22:47:47.903Z,13.47
2022-08-20T22:50:14.699Z,13.44
2022-08-20T22:52:43.408Z,13.38
2022-08-20T22:55:10.343Z,13.30
2022-08-20T22:57:37.661Z,13.23
2022-08-20T23:00:10.529Z,13.14
2022-08-20T23:02:37.174Z,13.13
2022-08-20T23:05:04.334Z,13.08
2022-08-20T23:07:31.115Z,13.08
2022-08-20T23:09:57.643Z,13.08
2022-08-20T23:12:24.225Z,13.09
2022-08-20T23:14:52.555Z,13.01
2022-08-20T23:17:19.562Z,12.98
2022-08-20T23:19:47.285Z,12.91
2022-08-20T23:22:14.218Z,12.86
2022-08-20T23:24:40.806Z,12.90
2022-08-20T23:27:08.606Z,12.83
2022-08-20T23:29:35.684Z,12.76
2022-08-20T23:32:02.383Z,12.73
2022-08-20T23:34:29.056Z,12.74
2022-08-20T23:36:56.705Z,12.74
2022-08-20T23:39:24.242Z,12.70
2022-08-20T23:41:50.953Z,12.65
2022-08-20T23:44:25.089Z,12.65
2022-08-20T23:46:56.637Z,12.62
2022-08-20T23:49:23.304Z,12.60
2022-08-20T23:51:49.853Z,12.61
2022-08-20T23:54:16.394Z,12.59
2022-08-20T23:56:43.002Z,12.59
2022-08-20T23:59:09.626Z,12.63
